sensor_id;sensor_type;location;lat;lon;timestamp;P1;durP1;ratioP1;P2;durP2;ratioP2
58071;SDS011;60383;46.626;18.866;2022-12-18T00:02:02;32.63;;;16.67;;
58071;SDS011;60383;46.626;18.866;2022-12-18T00:04:28;34.65;;;17.90;;
58071;SDS011;60383;46.626;18.866;2022-12-18T00:06:54;35.33;;;18.60;;
58071;SDS011;60383;46.626;18.866;2022-12-18T00:09:20;34.00;;;17.55;;
58071;SDS011;60383;46.626;18.866;2022-12-18T00:11:46;41.70;;;21.08;;
58071;SDS011;60383;46.626;18.866;2022-12-18T00:14:12;35.60;;;19.25;;
58071;SDS011;60383;46.626;18.866;2022-12-18T00:16:38;33.60;;;17.00;;
58071;SDS011;60383;46.626;18.866;2022-12-18T00:19:04;33.13;;;17.27;;
58071;SDS011;60383;46.626;18.866;2022-12-18T00:21:30;31.65;;;16.55;;
58071;SDS011;60383;46.626;18.866;2022-12-18T00:23:57;34.15;;;17.88;;
58071;SDS011;60383;46.626;18.866;2022-12-18T00:26:28;36.65;;;17.13;;
58071;SDS011;60383;46.626;18.866;2022-12-18T00:28:57;35.13;;;17.87;;
58071;SDS011;60383;46.626;18.866;2022-12-18T00:31:25;38.17;;;16.98;;
58071;SDS011;60383;46.626;18.866;2022-12-18T00:33:51;34.83;;;18.17;;
58071;SDS011;60383;46.626;18.866;2022-12-18T00:36:22;37.77;;;18.57;;
58071;SDS011;60383;46.626;18.866;2022-12-18T00:38:49;51.20;;;26.45;;
58071;SDS011;60383;46.626;18.866;2022-12-18T00:41:15;42.28;;;21.20;;
58071;SDS011;60383;46.626;18.866;2022-12-18T00:44:02;35.65;;;18.98;;
58071;SDS011;60383;46.626;18.866;2022-12-18T00:46:28;37.17;;;18.80;;
58071;SDS011;60383;46.626;18.866;2022-12-18T00:48:54;34.08;;;18.25;;
58071;SDS011;60383;46.626;18.866;2022-12-18T00:51:19;38.10;;;18.38;;
58071;SDS011;60383;46.626;18.866;2022-12-18T00:53:45;35.35;;;18.33;;
58071;SDS011;60383;46.626;18.866;2022-12-18T00:56:10;35.60;;;17.73;;
58071;SDS011;60383;46.626;18.866;2022-12-18T00:58:36;32.30;;;15.70;;
58071;SDS011;60383;46.626;18.866;2022-12-18T01:01:03;32.95;;;17.55;;
58071;SDS011;60383;46.626;18.866;2022-12-18T01:03:29;35.28;;;18.35;;
58071;SDS011;60383;46.626;18.866;2022-12-18T01:05:55;34.78;;;19.08;;
58071;SDS011;60383;46.626;18.866;2022-12-18T01:08:21;38.00;;;19.45;;
58071;SDS011;60383;46.626;18.866;2022-12-18T01:10:46;39.80;;;19.70;;
58071;SDS011;60383;46.626;18.866;2022-12-18T01:13:12;31.58;;;18.15;;
58071;SDS011;60383;46.626;18.866;2022-12-18T01:15:37;31.33;;;16.50;;
58071;SDS011;60383;46.626;18.866;2022-12-18T01:18:03;38.15;;;17.90;;
58071;SDS011;60383;46.626;18.866;2022-12-18T01:20:28;36.67;;;18.48;;
58071;SDS011;60383;46.626;18.866;2022-12-18T01:22:54;34.95;;;18.27;;
58071;SDS011;60383;46.626;18.866;2022-12-18T01:25:19;37.97;;;18.83;;
58071;SDS011;60383;46.626;18.866;2022-12-18T01:27:44;36.97;;;18.60;;
58071;SDS011;60383;46.626;18.866;2022-12-18T01:30:10;33.92;;;16.85;;
58071;SDS011;60383;46.626;18.866;2022-12-18T01:32:36;34.58;;;17.27;;
58071;SDS011;60383;46.626;18.866;2022-12-18T01:35:02;33.17;;;17.70;;
58071;SDS011;60383;46.626;18.866;2022-12-18T01:37:28;34.42;;;18.23;;
58071;SDS011;60383;46.626;18.866;2022-12-18T01:39:54;32.95;;;17.10;;
58071;SDS011;60383;46.626;18.866;2022-12-18T01:42:19;35.72;;;18.55;;
58071;SDS011;60383;46.626;18.866;2022-12-18T01:45:08;35.90;;;17.73;;
58071;SDS011;60383;46.626;18.866;2022-12-18T01:52:48;33.57;;;18.73;;
58071;SDS011;60383;46.626;18.866;2022-12-18T01:55:18;34.40;;;17.92;;
58071;SDS011;60383;46.626;18.866;2022-12-18T01:57:47;39.60;;;18.23;;
58071;SDS011;60383;46.626;18.866;2022-12-18T02:00:14;38.72;;;18.88;;
58071;SDS011;60383;46.626;18.866;2022-12-18T02:02:45;36.53;;;18.38;;
58071;SDS011;60383;46.626;18.866;2022-12-18T02:05:12;35.80;;;17.77;;
58071;SDS011;60383;46.626;18.866;2022-12-18T02:18:19;39.17;;;18.77;;
58071;SDS011;60383;46.626;18.866;2022-12-18T02:29:09;40.25;;;20.75;;
58071;SDS011;60383;46.626;18.866;2022-12-18T02:31:43;38.47;;;20.30;;
58071;SDS011;60383;46.626;18.866;2022-12-18T02:34:15;38.85;;;19.05;;
58071;SDS011;60383;46.626;18.866;2022-12-18T02:36:43;38.20;;;18.55;;
58071;SDS011;60383;46.626;18.866;2022-12-18T02:39:11;39.17;;;19.95;;
58071;SDS011;60383;46.626;18.866;2022-12-18T02:41:38;39.63;;;20.38;;
58071;SDS011;60383;46.626;18.866;2022-12-18T02:44:10;39.63;;;20.13;;
58071;SDS011;60383;46.626;18.866;2022-12-18T02:46:38;33.13;;;17.17;;
58071;SDS011;60383;46.626;18.866;2022-12-18T02:57:44;36.85;;;19.45;;
58071;SDS011;60383;46.626;18.866;2022-12-18T03:03:18;35.88;;;18.55;;
58071;SDS011;60383;46.626;18.866;2022-12-18T03:08:22;33.95;;;18.30;;
58071;SDS011;60383;46.626;18.866;2022-12-18T03:11:04;38.60;;;19.48;;
58071;SDS011;60383;46.626;18.866;2022-12-18T03:13:33;34.53;;;18.73;;
58071;SDS011;60383;46.626;18.866;2022-12-18T03:16:02;35.00;;;19.30;;
58071;SDS011;60383;46.626;18.866;2022-12-18T03:21:11;38.83;;;19.20;;
58071;SDS011;60383;46.626;18.866;2022-12-18T03:23:48;39.85;;;18.77;;
58071;SDS011;60383;46.626;18.866;2022-12-18T03:26:16;36.72;;;19.40;;
58071;SDS011;60383;46.626;18.866;2022-12-18T03:28:52;37.45;;;19.35;;
58071;SDS011;60383;46.626;18.866;2022-12-18T03:31:21;38.00;;;19.58;;
58071;SDS011;60383;46.626;18.866;2022-12-18T03:36:18;37.63;;;18.55;;
58071;SDS011;60383;46.626;18.866;2022-12-18T03:38:44;39.22;;;20.63;;
58071;SDS011;60383;46.626;18.866;2022-12-18T03:43:52;42.88;;;19.90;;
58071;SDS011;60383;46.626;18.866;2022-12-18T03:46:29;38.10;;;19.80;;
58071;SDS011;60383;46.626;18.866;2022-12-18T03:49:04;37.05;;;18.50;;
58071;SDS011;60383;46.626;18.866;2022-12-18T03:51:40;40.00;;;19.77;;
58071;SDS011;60383;46.626;18.866;2022-12-18T03:54:13;38.85;;;19.83;;
58071;SDS011;60383;46.626;18.866;2022-12-18T03:56:42;36.97;;;18.65;;
58071;SDS011;60383;46.626;18.866;2022-12-18T03:59:12;37.80;;;19.70;;
58071;SDS011;60383;46.626;18.866;2022-12-18T04:01:40;41.83;;;19.83;;
58071;SDS011;60383;46.626;18.866;2022-12-18T04:04:11;41.85;;;19.83;;
58071;SDS011;60383;46.626;18.866;2022-12-18T04:06:38;39.42;;;20.48;;
58071;SDS011;60383;46.626;18.866;2022-12-18T04:09:06;36.80;;;18.58;;
58071;SDS011;60383;46.626;18.866;2022-12-18T04:11:31;40.35;;;19.90;;
58071;SDS011;60383;46.626;18.866;2022-12-18T04:13:57;38.67;;;20.52;;
58071;SDS011;60383;46.626;18.866;2022-12-18T04:16:26;38.70;;;18.60;;
58071;SDS011;60383;46.626;18.866;2022-12-18T04:18:52;38.97;;;20.50;;
58071;SDS011;60383;46.626;18.866;2022-12-18T04:21:18;39.15;;;19.98;;
58071;SDS011;60383;46.626;18.866;2022-12-18T04:23:44;37.92;;;19.23;;
58071;SDS011;60383;46.626;18.866;2022-12-18T04:26:09;39.55;;;19.80;;
58071;SDS011;60383;46.626;18.866;2022-12-18T04:28:35;38.03;;;19.90;;
58071;SDS011;60383;46.626;18.866;2022-12-18T04:31:01;39.00;;;19.88;;
58071;SDS011;60383;46.626;18.866;2022-12-18T04:33:26;36.00;;;19.13;;
58071;SDS011;60383;46.626;18.866;2022-12-18T04:35:51;39.38;;;20.70;;
58071;SDS011;60383;46.626;18.866;2022-12-18T04:38:17;39.75;;;20.40;;
58071;SDS011;60383;46.626;18.866;2022-12-18T04:40:42;40.13;;;20.70;;
58071;SDS011;60383;46.626;18.866;2022-12-18T04:43:08;39.45;;;20.33;;
58071;SDS011;60383;46.626;18.866;2022-12-18T04:45:33;39.30;;;20.63;;
58071;SDS011;60383;46.626;18.866;2022-12-18T04:48:00;36.45;;;18.33;;
58071;SDS011;60383;46.626;18.866;2022-12-18T04:50:26;37.00;;;18.67;;
58071;SDS011;60383;46.626;18.866;2022-12-18T04:52:52;38.90;;;19.70;;
58071;SDS011;60383;46.626;18.866;2022-12-18T04:55:18;35.03;;;18.25;;
58071;SDS011;60383;46.626;18.866;2022-12-18T04:57:43;39.17;;;20.40;;
58071;SDS011;60383;46.626;18.866;2022-12-18T05:00:09;39.10;;;20.98;;
58071;SDS011;60383;46.626;18.866;2022-12-18T05:02:35;38.22;;;19.90;;
58071;SDS011;60383;46.626;18.866;2022-12-18T05:05:02;38.83;;;19.85;;
58071;SDS011;60383;46.626;18.866;2022-12-18T05:07:28;39.08;;;19.10;;
58071;SDS011;60383;46.626;18.866;2022-12-18T05:09:53;38.40;;;19.23;;
58071;SDS011;60383;46.626;18.866;2022-12-18T05:12:19;39.75;;;19.73;;
58071;SDS011;60383;46.626;18.866;2022-12-18T05:14:44;35.33;;;19.17;;
58071;SDS011;60383;46.626;18.866;2022-12-18T05:17:09;40.28;;;20.45;;
58071;SDS011;60383;46.626;18.866;2022-12-18T05:19:38;36.70;;;18.70;;
58071;SDS011;60383;46.626;18.866;2022-12-18T05:22:03;38.50;;;20.17;;
58071;SDS011;60383;46.626;18.866;2022-12-18T05:24:29;37.60;;;20.17;;
58071;SDS011;60383;46.626;18.866;2022-12-18T05:26:54;38.92;;;20.13;;
58071;SDS011;60383;46.626;18.866;2022-12-18T05:29:19;37.42;;;19.05;;
58071;SDS011;60383;46.626;18.866;2022-12-18T05:31:45;36.80;;;19.65;;
58071;SDS011;60383;46.626;18.866;2022-12-18T05:34:10;38.78;;;20.40;;
58071;SDS011;60383;46.626;18.866;2022-12-18T05:36:36;35.50;;;19.90;;
58071;SDS011;60383;46.626;18.866;2022-12-18T05:39:01;36.22;;;19.85;;
58071;SDS011;60383;46.626;18.866;2022-12-18T05:41:27;37.42;;;19.98;;
58071;SDS011;60383;46.626;18.866;2022-12-18T05:43:52;37.03;;;19.95;;
58071;SDS011;60383;46.626;18.866;2022-12-18T05:46:18;37.75;;;19.38;;
58071;SDS011;60383;46.626;18.866;2022-12-18T05:48:44;41.97;;;21.30;;
58071;SDS011;60383;46.626;18.866;2022-12-18T05:51:14;39.72;;;20.63;;
58071;SDS011;60383;46.626;18.866;2022-12-18T05:53:40;36.80;;;19.48;;
58071;SDS011;60383;46.626;18.866;2022-12-18T05:56:07;38.17;;;20.58;;
58071;SDS011;60383;46.626;18.866;2022-12-18T05:58:34;37.90;;;19.48;;
58071;SDS011;60383;46.626;18.866;2022-12-18T06:01:33;34.20;;;19.13;;
58071;SDS011;60383;46.626;18.866;2022-12-18T06:03:52;37.20;;;18.67;;
58071;SDS011;60383;46.626;18.866;2022-12-18T06:06:19;39.92;;;19.88;;
58071;SDS011;60383;46.626;18.866;2022-12-18T06:11:19;35.13;;;18.35;;
58071;SDS011;60383;46.626;18.866;2022-12-18T06:13:46;42.03;;;19.02;;
58071;SDS011;60383;46.626;18.866;2022-12-18T06:16:14;42.40;;;20.88;;
58071;SDS011;60383;46.626;18.866;2022-12-18T06:18:39;43.72;;;23.02;;
58071;SDS011;60383;46.626;18.866;2022-12-18T06:21:05;40.83;;;22.00;;
58071;SDS011;60383;46.626;18.866;2022-12-18T06:23:30;43.20;;;21.25;;
58071;SDS011;60383;46.626;18.866;2022-12-18T06:25:56;39.85;;;20.88;;
58071;SDS011;60383;46.626;18.866;2022-12-18T06:28:22;46.70;;;24.40;;
58071;SDS011;60383;46.626;18.866;2022-12-18T06:30:47;43.00;;;21.58;;
58071;SDS011;60383;46.626;18.866;2022-12-18T06:33:14;39.50;;;19.70;;
58071;SDS011;60383;46.626;18.866;2022-12-18T06:35:41;44.25;;;21.25;;
58071;SDS011;60383;46.626;18.866;2022-12-18T06:38:06;41.33;;;20.85;;
58071;SDS011;60383;46.626;18.866;2022-12-18T06:40:32;41.25;;;21.80;;
58071;SDS011;60383;46.626;18.866;2022-12-18T06:42:58;39.50;;;19.00;;
58071;SDS011;60383;46.626;18.866;2022-12-18T06:45:23;41.35;;;21.05;;
58071;SDS011;60383;46.626;18.866;2022-12-18T06:47:49;40.95;;;20.95;;
58071;SDS011;60383;46.626;18.866;2022-12-18T06:50:15;42.72;;;21.95;;
58071;SDS011;60383;46.626;18.866;2022-12-18T06:52:40;54.95;;;28.67;;
58071;SDS011;60383;46.626;18.866;2022-12-18T06:55:06;55.38;;;27.27;;
58071;SDS011;60383;46.626;18.866;2022-12-18T06:57:33;46.33;;;23.52;;
58071;SDS011;60383;46.626;18.866;2022-12-18T06:59:58;45.10;;;22.02;;
58071;SDS011;60383;46.626;18.866;2022-12-18T07:02:24;48.42;;;25.25;;
58071;SDS011;60383;46.626;18.866;2022-12-18T07:04:50;48.70;;;25.60;;
58071;SDS011;60383;46.626;18.866;2022-12-18T07:07:15;43.05;;;22.83;;
58071;SDS011;60383;46.626;18.866;2022-12-18T07:09:41;42.90;;;23.38;;
58071;SDS011;60383;46.626;18.866;2022-12-18T07:12:06;43.00;;;24.35;;
58071;SDS011;60383;46.626;18.866;2022-12-18T07:14:33;41.50;;;22.98;;
58071;SDS011;60383;46.626;18.866;2022-12-18T07:16:58;39.97;;;22.92;;
58071;SDS011;60383;46.626;18.866;2022-12-18T07:19:24;41.58;;;21.08;;
58071;SDS011;60383;46.626;18.866;2022-12-18T07:21:49;39.03;;;22.00;;
58071;SDS011;60383;46.626;18.866;2022-12-18T07:24:15;45.60;;;24.23;;
58071;SDS011;60383;46.626;18.866;2022-12-18T07:26:41;48.38;;;26.75;;
58071;SDS011;60383;46.626;18.866;2022-12-18T07:29:06;52.42;;;27.95;;
58071;SDS011;60383;46.626;18.866;2022-12-18T07:31:31;51.42;;;29.33;;
58071;SDS011;60383;46.626;18.866;2022-12-18T07:33:57;47.45;;;27.05;;
58071;SDS011;60383;46.626;18.866;2022-12-18T07:36:22;43.75;;;24.73;;
58071;SDS011;60383;46.626;18.866;2022-12-18T07:38:48;45.55;;;24.42;;
58071;SDS011;60383;46.626;18.866;2022-12-18T07:41:14;41.60;;;25.38;;
58071;SDS011;60383;46.626;18.866;2022-12-18T07:43:40;45.30;;;25.48;;
58071;SDS011;60383;46.626;18.866;2022-12-18T07:46:06;43.17;;;24.50;;
58071;SDS011;60383;46.626;18.866;2022-12-18T07:48:33;39.08;;;22.70;;
58071;SDS011;60383;46.626;18.866;2022-12-18T07:51:00;39.75;;;23.60;;
58071;SDS011;60383;46.626;18.866;2022-12-18T07:53:26;39.03;;;22.45;;
58071;SDS011;60383;46.626;18.866;2022-12-18T07:55:56;38.03;;;21.70;;
58071;SDS011;60383;46.626;18.866;2022-12-18T07:58:22;38.40;;;22.30;;
58071;SDS011;60383;46.626;18.866;2022-12-18T08:00:47;42.47;;;23.85;;
58071;SDS011;60383;46.626;18.866;2022-12-18T08:03:13;46.13;;;26.40;;
58071;SDS011;60383;46.626;18.866;2022-12-18T08:05:38;42.28;;;24.60;;
58071;SDS011;60383;46.626;18.866;2022-12-18T08:08:04;44.95;;;23.80;;
58071;SDS011;60383;46.626;18.866;2022-12-18T08:10:29;41.13;;;23.83;;
58071;SDS011;60383;46.626;18.866;2022-12-18T08:12:55;39.38;;;23.88;;
58071;SDS011;60383;46.626;18.866;2022-12-18T08:15:20;41.70;;;25.20;;
58071;SDS011;60383;46.626;18.866;2022-12-18T08:17:46;38.70;;;22.55;;
58071;SDS011;60383;46.626;18.866;2022-12-18T08:20:11;44.13;;;25.30;;
58071;SDS011;60383;46.626;18.866;2022-12-18T08:22:38;48.65;;;28.15;;
58071;SDS011;60383;46.626;18.866;2022-12-18T08:25:04;51.60;;;29.02;;
58071;SDS011;60383;46.626;18.866;2022-12-18T08:27:30;38.47;;;23.10;;
58071;SDS011;60383;46.626;18.866;2022-12-18T08:29:56;39.30;;;22.35;;
58071;SDS011;60383;46.626;18.866;2022-12-18T08:32:22;39.05;;;23.42;;
58071;SDS011;60383;46.626;18.866;2022-12-18T08:34:48;40.60;;;23.83;;
58071;SDS011;60383;46.626;18.866;2022-12-18T08:37:13;43.28;;;23.67;;
58071;SDS011;60383;46.626;18.866;2022-12-18T08:39:39;42.72;;;23.80;;
58071;SDS011;60383;46.626;18.866;2022-12-18T08:42:04;44.25;;;23.27;;
58071;SDS011;60383;46.626;18.866;2022-12-18T08:44:48;41.95;;;22.95;;
58071;SDS011;60383;46.626;18.866;2022-12-18T08:47:14;39.88;;;22.90;;
58071;SDS011;60383;46.626;18.866;2022-12-18T08:49:39;43.25;;;23.25;;
58071;SDS011;60383;46.626;18.866;2022-12-18T08:52:05;39.40;;;21.90;;
58071;SDS011;60383;46.626;18.866;2022-12-18T08:54:31;45.58;;;26.35;;
58071;SDS011;60383;46.626;18.866;2022-12-18T08:56:56;39.75;;;23.08;;
58071;SDS011;60383;46.626;18.866;2022-12-18T08:59:22;42.55;;;23.95;;
58071;SDS011;60383;46.626;18.866;2022-12-18T09:01:48;39.78;;;23.95;;
58071;SDS011;60383;46.626;18.866;2022-12-18T09:04:14;44.33;;;24.23;;
58071;SDS011;60383;46.626;18.866;2022-12-18T09:06:40;40.42;;;23.58;;
58071;SDS011;60383;46.626;18.866;2022-12-18T09:09:06;41.30;;;23.45;;
58071;SDS011;60383;46.626;18.866;2022-12-18T09:11:34;41.60;;;24.35;;
58071;SDS011;60383;46.626;18.866;2022-12-18T09:14:00;43.38;;;23.35;;
58071;SDS011;60383;46.626;18.866;2022-12-18T09:16:26;37.42;;;23.35;;
58071;SDS011;60383;46.626;18.866;2022-12-18T09:18:54;38.45;;;23.63;;
58071;SDS011;60383;46.626;18.866;2022-12-18T09:21:24;38.38;;;22.60;;
58071;SDS011;60383;46.626;18.866;2022-12-18T09:23:51;39.75;;;23.77;;
58071;SDS011;60383;46.626;18.866;2022-12-18T09:26:17;39.45;;;22.95;;
58071;SDS011;60383;46.626;18.866;2022-12-18T09:28:43;39.90;;;21.50;;
58071;SDS011;60383;46.626;18.866;2022-12-18T09:31:08;38.60;;;21.63;;
58071;SDS011;60383;46.626;18.866;2022-12-18T09:33:35;37.78;;;21.75;;
58071;SDS011;60383;46.626;18.866;2022-12-18T09:36:06;38.47;;;22.33;;
58071;SDS011;60383;46.626;18.866;2022-12-18T09:38:34;37.25;;;21.67;;
58071;SDS011;60383;46.626;18.866;2022-12-18T09:41:24;37.35;;;22.60;;
58071;SDS011;60383;46.626;18.866;2022-12-18T09:44:22;38.47;;;21.02;;
58071;SDS011;60383;46.626;18.866;2022-12-18T09:46:53;37.47;;;20.85;;
58071;SDS011;60383;46.626;18.866;2022-12-18T09:49:26;35.78;;;21.55;;
58071;SDS011;60383;46.626;18.866;2022-12-18T09:52:56;34.33;;;19.88;;
58071;SDS011;60383;46.626;18.866;2022-12-18T09:55:00;36.60;;;20.77;;
58071;SDS011;60383;46.626;18.866;2022-12-18T09:57:31;34.30;;;20.27;;
58071;SDS011;60383;46.626;18.866;2022-12-18T10:00:22;34.20;;;20.02;;
58071;SDS011;60383;46.626;18.866;2022-12-18T10:02:48;37.35;;;21.42;;
58071;SDS011;60383;46.626;18.866;2022-12-18T10:05:16;36.35;;;19.52;;
58071;SDS011;60383;46.626;18.866;2022-12-18T10:07:53;37.65;;;21.10;;
58071;SDS011;60383;46.626;18.866;2022-12-18T10:10:35;38.45;;;21.98;;
58071;SDS011;60383;46.626;18.866;2022-12-18T10:13:26;35.97;;;21.05;;
58071;SDS011;60383;46.626;18.866;2022-12-18T10:16:13;34.47;;;19.48;;
58071;SDS011;60383;46.626;18.866;2022-12-18T10:21:32;34.13;;;19.48;;
58071;SDS011;60383;46.626;18.866;2022-12-18T10:26:48;38.90;;;21.35;;
58071;SDS011;60383;46.626;18.866;2022-12-18T10:29:15;34.45;;;19.98;;
58071;SDS011;60383;46.626;18.866;2022-12-18T10:31:41;36.53;;;21.52;;
58071;SDS011;60383;46.626;18.866;2022-12-18T10:34:11;33.88;;;20.63;;
58071;SDS011;60383;46.626;18.866;2022-12-18T10:36:37;34.75;;;19.85;;
58071;SDS011;60383;46.626;18.866;2022-12-18T10:39:20;31.73;;;19.63;;
58071;SDS011;60383;46.626;18.866;2022-12-18T10:41:48;30.55;;;18.67;;
58071;SDS011;60383;46.626;18.866;2022-12-18T10:44:18;31.92;;;18.85;;
58071;SDS011;60383;46.626;18.866;2022-12-18T10:47:02;32.70;;;18.65;;
58071;SDS011;60383;46.626;18.866;2022-12-18T10:49:30;33.35;;;18.83;;
58071;SDS011;60383;46.626;18.866;2022-12-18T10:52:17;33.72;;;19.67;;
58071;SDS011;60383;46.626;18.866;2022-12-18T10:54:55;30.95;;;19.45;;
58071;SDS011;60383;46.626;18.866;2022-12-18T10:57:38;32.50;;;19.33;;
58071;SDS011;60383;46.626;18.866;2022-12-18T11:00:22;31.20;;;18.20;;
58071;SDS011;60383;46.626;18.866;2022-12-18T11:02:50;31.85;;;18.80;;
58071;SDS011;60383;46.626;18.866;2022-12-18T11:07:53;31.38;;;17.55;;
58071;SDS011;60383;46.626;18.866;2022-12-18T11:10:28;33.65;;;18.90;;
58071;SDS011;60383;46.626;18.866;2022-12-18T11:13:08;33.53;;;18.88;;
58071;SDS011;60383;46.626;18.866;2022-12-18T11:15:41;32.42;;;18.35;;
58071;SDS011;60383;46.626;18.866;2022-12-18T11:18:14;32.58;;;18.25;;
58071;SDS011;60383;46.626;18.866;2022-12-18T11:20:42;34.42;;;18.77;;
58071;SDS011;60383;46.626;18.866;2022-12-18T11:23:16;33.17;;;18.58;;
58071;SDS011;60383;46.626;18.866;2022-12-18T11:25:54;32.22;;;18.17;;
58071;SDS011;60383;46.626;18.866;2022-12-18T11:28:37;31.65;;;17.92;;
58071;SDS011;60383;46.626;18.866;2022-12-18T11:31:11;34.88;;;18.23;;
58071;SDS011;60383;46.626;18.866;2022-12-18T11:33:41;31.23;;;18.35;;
58071;SDS011;60383;46.626;18.866;2022-12-18T11:36:09;33.40;;;18.92;;
58071;SDS011;60383;46.626;18.866;2022-12-18T11:38:39;34.55;;;18.85;;
58071;SDS011;60383;46.626;18.866;2022-12-18T11:41:10;40.60;;;18.70;;
58071;SDS011;60383;46.626;18.866;2022-12-18T11:43:48;36.20;;;19.65;;
58071;SDS011;60383;46.626;18.866;2022-12-18T11:46:30;36.08;;;20.45;;
58071;SDS011;60383;46.626;18.866;2022-12-18T11:51:34;33.38;;;19.05;;
58071;SDS011;60383;46.626;18.866;2022-12-18T11:54:11;34.97;;;18.65;;
58071;SDS011;60383;46.626;18.866;2022-12-18T11:56:49;31.60;;;17.77;;
58071;SDS011;60383;46.626;18.866;2022-12-18T11:59:27;36.92;;;20.15;;
58071;SDS011;60383;46.626;18.866;2022-12-18T12:02:11;34.40;;;18.60;;
58071;SDS011;60383;46.626;18.866;2022-12-18T12:05:02;33.33;;;18.50;;
58071;SDS011;60383;46.626;18.866;2022-12-18T12:16:09;34.80;;;18.42;;
58071;SDS011;60383;46.626;18.866;2022-12-18T12:22:05;32.38;;;17.88;;
58071;SDS011;60383;46.626;18.866;2022-12-18T12:24:59;31.85;;;17.33;;
58071;SDS011;60383;46.626;18.866;2022-12-18T12:36:00;33.10;;;18.42;;
58071;SDS011;60383;46.626;18.866;2022-12-18T12:38:44;33.42;;;18.30;;
58071;SDS011;60383;46.626;18.866;2022-12-18T12:41:23;30.75;;;17.45;;
58071;SDS011;60383;46.626;18.866;2022-12-18T12:44:13;48.83;;;18.15;;
58071;SDS011;60383;46.626;18.866;2022-12-18T12:46:44;52.67;;;19.75;;
58071;SDS011;60383;46.626;18.866;2022-12-18T12:49:18;31.67;;;17.00;;
58071;SDS011;60383;46.626;18.866;2022-12-18T12:51:52;31.83;;;16.90;;
58071;SDS011;60383;46.626;18.866;2022-12-18T12:54:25;33.08;;;17.70;;
58071;SDS011;60383;46.626;18.866;2022-12-18T12:57:05;29.80;;;15.88;;
58071;SDS011;60383;46.626;18.866;2022-12-18T13:00:00;30.42;;;15.80;;
58071;SDS011;60383;46.626;18.866;2022-12-18T13:02:35;30.55;;;16.73;;
58071;SDS011;60383;46.626;18.866;2022-12-18T13:07:41;31.30;;;16.65;;
58071;SDS011;60383;46.626;18.866;2022-12-18T13:13:07;31.52;;;16.55;;
58071;SDS011;60383;46.626;18.866;2022-12-18T13:18:33;26.60;;;14.82;;
58071;SDS011;60383;46.626;18.866;2022-12-18T13:25:54;27.10;;;14.75;;
58071;SDS011;60383;46.626;18.866;2022-12-18T13:30:58;30.15;;;14.90;;
58071;SDS011;60383;46.626;18.866;2022-12-18T13:36:41;29.38;;;15.95;;
58071;SDS011;60383;46.626;18.866;2022-12-18T13:38:47;28.98;;;14.90;;
58071;SDS011;60383;46.626;18.866;2022-12-18T13:41:38;26.75;;;14.95;;
58071;SDS011;60383;46.626;18.866;2022-12-18T13:44:50;24.10;;;13.68;;
58071;SDS011;60383;46.626;18.866;2022-12-18T13:46:58;29.35;;;15.07;;
58071;SDS011;60383;46.626;18.866;2022-12-18T13:52:02;26.73;;;14.18;;
58071;SDS011;60383;46.626;18.866;2022-12-18T13:54:39;27.42;;;15.63;;
58071;SDS011;60383;46.626;18.866;2022-12-18T13:57:26;28.17;;;15.23;;
58071;SDS011;60383;46.626;18.866;2022-12-18T13:59:53;27.48;;;14.90;;
58071;SDS011;60383;46.626;18.866;2022-12-18T14:02:26;28.45;;;15.48;;
58071;SDS011;60383;46.626;18.866;2022-12-18T14:04:53;27.60;;;15.63;;
58071;SDS011;60383;46.626;18.866;2022-12-18T14:09:48;25.77;;;14.45;;
58071;SDS011;60383;46.626;18.866;2022-12-18T14:12:17;29.90;;;15.90;;
58071;SDS011;60383;46.626;18.866;2022-12-18T14:15:06;27.17;;;15.00;;
58071;SDS011;60383;46.626;18.866;2022-12-18T14:17:44;28.67;;;15.15;;
58071;SDS011;60383;46.626;18.866;2022-12-18T14:20:16;30.10;;;17.20;;
58071;SDS011;60383;46.626;18.866;2022-12-18T14:22:46;30.92;;;16.67;;
58071;SDS011;60383;46.626;18.866;2022-12-18T14:25:18;33.13;;;17.38;;
58071;SDS011;60383;46.626;18.866;2022-12-18T14:30:40;36.75;;;18.95;;
58071;SDS011;60383;46.626;18.866;2022-12-18T14:35:33;33.47;;;18.20;;
58071;SDS011;60383;46.626;18.866;2022-12-18T14:38:19;32.88;;;19.70;;
58071;SDS011;60383;46.626;18.866;2022-12-18T14:40:47;33.08;;;17.33;;
58071;SDS011;60383;46.626;18.866;2022-12-18T14:43:20;36.05;;;18.15;;
58071;SDS011;60383;46.626;18.866;2022-12-18T14:45:46;34.78;;;18.30;;
58071;SDS011;60383;46.626;18.866;2022-12-18T14:50:42;33.22;;;18.02;;
58071;SDS011;60383;46.626;18.866;2022-12-18T14:53:22;32.97;;;18.30;;
58071;SDS011;60383;46.626;18.866;2022-12-18T14:55:57;33.80;;;17.83;;
58071;SDS011;60383;46.626;18.866;2022-12-18T14:58:23;31.85;;;18.33;;
58071;SDS011;60383;46.626;18.866;2022-12-18T15:00:49;40.58;;;20.48;;
58071;SDS011;60383;46.626;18.866;2022-12-18T15:03:18;43.75;;;23.80;;
58071;SDS011;60383;46.626;18.866;2022-12-18T15:05:46;56.95;;;33.63;;
58071;SDS011;60383;46.626;18.866;2022-12-18T15:08:28;33.50;;;17.85;;
58071;SDS011;60383;46.626;18.866;2022-12-18T15:10:56;31.75;;;17.60;;
58071;SDS011;60383;46.626;18.866;2022-12-18T15:13:22;29.45;;;15.85;;
58071;SDS011;60383;46.626;18.866;2022-12-18T15:15:49;32.70;;;16.60;;
58071;SDS011;60383;46.626;18.866;2022-12-18T15:18:25;48.92;;;26.50;;
58071;SDS011;60383;46.626;18.866;2022-12-18T15:20:58;35.72;;;19.40;;
58071;SDS011;60383;46.626;18.866;2022-12-18T15:26:18;38.60;;;18.80;;
58071;SDS011;60383;46.626;18.866;2022-12-18T15:28:49;34.58;;;18.05;;
58071;SDS011;60383;46.626;18.866;2022-12-18T15:36:17;38.45;;;20.77;;
58071;SDS011;60383;46.626;18.866;2022-12-18T15:38:48;51.58;;;27.13;;
58071;SDS011;60383;46.626;18.866;2022-12-18T15:41:16;52.90;;;29.75;;
58071;SDS011;60383;46.626;18.866;2022-12-18T15:43:44;86.80;;;36.55;;
58071;SDS011;60383;46.626;18.866;2022-12-18T15:46:18;80.07;;;43.85;;
58071;SDS011;60383;46.626;18.866;2022-12-18T15:48:46;78.15;;;43.92;;
58071;SDS011;60383;46.626;18.866;2022-12-18T15:51:21;66.38;;;37.55;;
58071;SDS011;60383;46.626;18.866;2022-12-18T15:53:51;68.47;;;39.45;;
58071;SDS011;60383;46.626;18.866;2022-12-18T15:56:19;69.32;;;40.50;;
58071;SDS011;60383;46.626;18.866;2022-12-18T15:59:25;64.63;;;37.67;;
58071;SDS011;60383;46.626;18.866;2022-12-18T16:01:52;68.30;;;39.45;;
58071;SDS011;60383;46.626;18.866;2022-12-18T16:04:19;76.90;;;42.00;;
58071;SDS011;60383;46.626;18.866;2022-12-18T16:06:48;66.80;;;39.95;;
58071;SDS011;60383;46.626;18.866;2022-12-18T16:09:14;73.40;;;45.70;;
58071;SDS011;60383;46.626;18.866;2022-12-18T16:11:41;74.82;;;44.15;;
58071;SDS011;60383;46.626;18.866;2022-12-18T16:16:54;91.95;;;50.13;;
58071;SDS011;60383;46.626;18.866;2022-12-18T16:19:26;96.05;;;51.03;;
58071;SDS011;60383;46.626;18.866;2022-12-18T16:21:52;101.82;;;55.55;;
58071;SDS011;60383;46.626;18.866;2022-12-18T16:24:24;100.80;;;53.97;;
58071;SDS011;60383;46.626;18.866;2022-12-18T16:26:51;102.75;;;56.75;;